createdAt,value
2023-05-05T00:00:25.740Z,100680.88
2023-05-05T00:02:53.486Z,100682.06
2023-05-05T00:05:20.371Z,100683.88
2023-05-05T00:07:46.950Z,100685.72
2023-05-05T00:10:13.697Z,100687.31
2023-05-05T00:12:40.473Z,100679.97
2023-05-05T00:15:08.587Z,100679.44
2023-05-05T00:17:35.226Z,100684.91
2023-05-05T00:20:02.129Z,100683.88
2023-05-05T00:22:29.084Z,100683.88
2023-05-05T00:24:56.077Z,100684.66
2023-05-05T00:27:22.829Z,100691.84
2023-05-05T00:29:49.400Z,100679.38
2023-05-05T00:32:16.203Z,100672.34
2023-05-05T00:34:42.823Z,100681.22
2023-05-05T00:37:09.450Z,100677.94
2023-05-05T00:39:37.462Z,100672.16
2023-05-05T00:42:04.355Z,100674.50
2023-05-05T00:44:37.628Z,100675.47
2023-05-05T00:47:04.507Z,100672.91
2023-05-05T00:49:31.743Z,100672.38
2023-05-05T00:51:59.249Z,100670.16
2023-05-05T00:54:26.091Z,100671.41
2023-05-05T00:56:53.448Z,100661.53
2023-05-05T00:59:20.886Z,100657.81
2023-05-05T01:01:47.613Z,100654.78
2023-05-05T01:04:14.223Z,100659.59
2023-05-05T01:06:54.053Z,100655.00
2023-05-05T01:09:57.939Z,100658.13
2023-05-05T01:12:37.741Z,100657.97
2023-05-05T01:15:15.261Z,100654.06
2023-05-05T01:17:51.687Z,100661.34
2023-05-05T01:20:23.747Z,100649.88
2023-05-05T01:22:55.025Z,100658.69
2023-05-05T01:25:30.380Z,100653.59
2023-05-05T01:28:15.641Z,100656.53
2023-05-05T01:30:48.026Z,100652.97
2023-05-05T01:33:19.298Z,100648.03
2023-05-05T01:35:55.415Z,100651.56
2023-05-05T01:38:26.281Z,100655.53
2023-05-05T01:40:57.688Z,100646.31
2023-05-05T01:43:29.591Z,100657.56
2023-05-05T01:45:58.633Z,100647.47
2023-05-05T01:48:26.469Z,100653.50
2023-05-05T01:50:54.089Z,100654.09
2023-05-05T01:53:23.775Z,100656.75
2023-05-05T01:55:52.677Z,100651.59
2023-05-05T01:58:22.811Z,100649.69
2023-05-05T02:00:51.030Z,100649.66
2023-05-05T02:03:19.692Z,100647.00
2023-05-05T02:05:48.623Z,100650.63
2023-05-05T02:08:16.461Z,100640.28
2023-05-05T02:10:45.000Z,100648.13
2023-05-05T02:13:13.281Z,100642.75
2023-05-05T02:15:41.194Z,100650.88
2023-05-05T02:18:11.997Z,100654.50
2023-05-05T02:20:39.875Z,100647.47
2023-05-05T02:23:08.069Z,100647.28
2023-05-05T02:25:42.076Z,100645.78
2023-05-05T02:28:18.482Z,100644.06
2023-05-05T02:30:51.555Z,100645.72
2023-05-05T02:33:22.105Z,100646.63
2023-05-05T02:35:51.438Z,100646.97
2023-05-05T02:38:26.461Z,100634.25
2023-05-05T02:40:57.463Z,100633.34
2023-05-05T02:43:25.887Z,100640.66
2023-05-05T02:45:52.676Z,100638.75
2023-05-05T02:48:19.398Z,100642.72
2023-05-05T02:50:46.009Z,100653.25
2023-05-05T02:53:13.023Z,100648.97
2023-05-05T02:55:45.437Z,100643.34
2023-05-05T02:58:23.715Z,100652.00
2023-05-05T03:00:53.787Z,100647.06
2023-05-05T03:03:30.842Z,100650.16
2023-05-05T03:06:27.364Z,100646.81
2023-05-05T03:09:03.124Z,100651.63
2023-05-05T03:11:37.030Z,100652.31
2023-05-05T03:14:13.212Z,100650.44
2023-05-05T03:16:42.650Z,100650.75
2023-05-05T03:19:12.410Z,100655.25
2023-05-05T03:21:40.885Z,100659.41
2023-05-05T03:24:14.053Z,100655.81
2023-05-05T03:26:41.824Z,100654.44
2023-05-05T03:29:08.565Z,100657.47
2023-05-05T03:31:35.687Z,100655.78
2023-05-05T03:34:02.362Z,100650.50
2023-05-05T03:36:29.944Z,100649.56
2023-05-05T03:38:56.571Z,100648.59
2023-05-05T03:41:23.844Z,100653.03
2023-05-05T03:43:51.639Z,100651.38
2023-05-05T03:46:18.356Z,100664.53
2023-05-05T03:48:45.415Z,100651.34
2023-05-05T03:51:13.175Z,100660.34
2023-05-05T03:53:40.118Z,100667.50
2023-05-05T03:56:06.905Z,100662.34
2023-05-05T03:58:33.604Z,100667.03
2023-05-05T04:01:00.275Z,100666.56
2023-05-05T04:03:27.071Z,100667.34
2023-05-05T04:05:53.876Z,100668.47
2023-05-05T04:08:20.530Z,100676.56
2023-05-05T04:10:47.125Z,100673.53
2023-05-05T04:13:13.829Z,100672.19
2023-05-05T04:15:47.181Z,100681.22
2023-05-05T04:18:14.306Z,100682.97
2023-05-05T04:20:41.121Z,100686.03
2023-05-05T04:23:10.117Z,100684.06
2023-05-05T04:25:36.764Z,100682.63
2023-05-05T04:28:03.504Z,100683.34
2023-05-05T04:30:30.158Z,100678.56
2023-05-05T04:32:57.025Z,100686.28
2023-05-05T04:35:23.661Z,100682.84
2023-05-05T04:37:50.300Z,100688.69
2023-05-05T04:40:17.084Z,100689.75
2023-05-05T04:42:43.734Z,100684.78
2023-05-05T04:45:10.828Z,100688.19
2023-05-05T04:47:38.883Z,100692.22
2023-05-05T04:50:06.372Z,100690.75
2023-05-05T04:52:33.439Z,100699.63
2023-05-05T04:55:00.610Z,100702.13
2023-05-05T04:57:27.489Z,100699.50
2023-05-05T04:59:54.076Z,100708.00
2023-05-05T05:02:21.280Z,100710.63
2023-05-05T05:04:47.966Z,100696.69
2023-05-05T05:07:15.153Z,100708.66
2023-05-05T05:09:41.756Z,100703.16
2023-05-05T05:12:09.800Z,100705.88
2023-05-05T05:14:40.107Z,100706.53
2023-05-05T05:17:07.882Z,100701.19
2023-05-05T05:19:34.673Z,100716.28
2023-05-05T05:22:01.404Z,100706.28
2023-05-05T05:24:28.118Z,100706.06
2023-05-05T05:26:54.772Z,100704.19
2023-05-05T05:29:21.447Z,100695.44
2023-05-05T05:31:50.334Z,100690.38
2023-05-05T05:34:16.995Z,100700.31
2023-05-05T05:36:43.637Z,100701.56
2023-05-05T05:39:10.255Z,100701.22
2023-05-05T05:41:36.841Z,100700.47
2023-05-05T05:44:03.521Z,100713.66
2023-05-05T05:46:30.292Z,100701.16
2023-05-05T05:48:57.367Z,100701.03
2023-05-05T05:51:24.017Z,100708.00
2023-05-05T05:53:51.893Z,100708.38
2023-05-05T05:56:18.487Z,100709.34
2023-05-05T05:58:45.333Z,100711.75
2023-05-05T06:01:12.034Z,100704.47
2023-05-05T06:03:38.725Z,100708.91
2023-05-05T06:06:05.619Z,100710.78
2023-05-05T06:08:32.320Z,100710.44
2023-05-05T06:11:00.595Z,100712.53
2023-05-05T06:13:27.366Z,100714.94
2023-05-05T06:15:55.134Z,100721.00
2023-05-05T06:18:21.878Z,100716.84
2023-05-05T06:20:52.394Z,100723.00
2023-05-05T06:23:23.291Z,100716.91
2023-05-05T06:25:51.208Z,100712.69
2023-05-05T06:28:18.733Z,100718.91
2023-05-05T06:30:45.498Z,100715.91
2023-05-05T06:33:15.120Z,100720.31
2023-05-05T06:35:41.772Z,100719.91
2023-05-05T06:38:08.616Z,100720.31
2023-05-05T06:40:35.406Z,100720.94
2023-05-05T06:43:02.061Z,100719.19
2023-05-05T06:45:28.693Z,100716.59
2023-05-05T06:47:55.714Z,100709.66
2023-05-05T06:50:22.386Z,100720.16
2023-05-05T06:52:49.108Z,100720.72
2023-05-05T06:55:15.841Z,100717.25
2023-05-05T06:57:42.464Z,100718.09
2023-05-05T07:00:11.484Z,100709.34
2023-05-05T07:02:38.698Z,100716.75
2023-05-05T07:05:05.997Z,100711.84
2023-05-05T07:07:32.718Z,100711.28
2023-05-05T07:09:59.391Z,100723.88
2023-05-05T07:12:26.138Z,100712.09
2023-05-05T07:14:52.794Z,100715.41
2023-05-05T07:17:19.495Z,100720.56
2023-05-05T07:19:46.119Z,100706.53
2023-05-05T07:22:12.821Z,100714.78
2023-05-05T07:24:39.461Z,100712.72
2023-05-05T07:27:06.992Z,100704.00
2023-05-05T07:29:33.637Z,100710.84
2023-05-05T07:32:00.314Z,100700.66
2023-05-05T07:34:27.604Z,100707.63
2023-05-05T07:36:57.542Z,100701.41
2023-05-05T07:39:24.213Z,100705.59
2023-05-05T07:41:51.907Z,100708.00
2023-05-05T07:44:18.525Z,100700.22
2023-05-05T07:46:48.005Z,100694.41
2023-05-05T07:49:14.497Z,100697.00
2023-05-05T07:51:41.339Z,100686.69
2023-05-05T07:54:08.373Z,100693.16
2023-05-05T07:56:38.028Z,100683.00
2023-05-05T07:59:04.682Z,100692.91
2023-05-05T08:01:31.277Z,100701.69
2023-05-05T08:03:58.188Z,100699.75
2023-05-05T08:06:25.245Z,100700.56
2023-05-05T08:08:53.428Z,100702.47
2023-05-05T08:11:20.820Z,100701.16
2023-05-05T08:13:48.650Z,100692.34
2023-05-05T08:16:15.813Z,100705.31
2023-05-05T08:18:42.508Z,100704.31
2023-05-05T08:21:10.080Z,100708.34
2023-05-05T08:23:38.752Z,100710.13
2023-05-05T08:26:06.728Z,100703.81
2023-05-05T08:28:38.981Z,100714.56
2023-05-05T08:31:06.849Z,100706.75
2023-05-05T08:33:34.385Z,100711.88
2023-05-05T08:36:01.178Z,100708.66
2023-05-05T08:38:27.837Z,100711.16
2023-05-05T08:40:57.587Z,100722.22
2023-05-05T08:43:24.322Z,100709.47
2023-05-05T08:45:53.697Z,100707.38
2023-05-05T08:48:21.050Z,100704.47
2023-05-05T08:50:52.872Z,100706.94
2023-05-05T08:53:36.651Z,100700.19
2023-05-05T08:56:08.939Z,100698.78
2023-05-05T08:58:37.559Z,100695.88
2023-05-05T09:01:07.447Z,100687.25
2023-05-05T09:03:36.867Z,100685.81
2023-05-05T09:06:04.050Z,100686.88
2023-05-05T09:08:31.865Z,100690.41
2023-05-05T09:10:59.680Z,100688.72
2023-05-05T09:13:26.453Z,100682.03
2023-05-05T09:15:53.182Z,100687.88
2023-05-05T09:18:19.801Z,100687.09
2023-05-05T09:20:46.474Z,100690.50
2023-05-05T09:23:15.238Z,100678.97
2023-05-05T09:25:45.235Z,100692.13
2023-05-05T09:28:16.478Z,100689.41
2023-05-05T09:30:48.375Z,100677.00
2023-05-05T09:33:28.997Z,100678.06
2023-05-05T09:35:56.228Z,100679.53
2023-05-05T09:38:28.563Z,100674.63
2023-05-05T09:40:55.294Z,100671.75
2023-05-05T09:43:23.901Z,100680.59
2023-05-05T09:45:51.211Z,100667.09
2023-05-05T09:48:26.749Z,100664.88
2023-05-05T09:50:58.791Z,100667.00
2023-05-05T09:53:26.579Z,100658.38
2023-05-05T09:56:00.977Z,100663.66
2023-05-05T09:58:29.544Z,100661.53
2023-05-05T10:00:57.668Z,100669.09
2023-05-05T10:03:25.305Z,100667.84
2023-05-05T10:05:54.164Z,100654.09
2023-05-05T10:08:22.691Z,100655.19
2023-05-05T10:10:56.292Z,100655.72
2023-05-05T10:13:24.544Z,100655.31
2023-05-05T10:15:53.253Z,100661.41
2023-05-05T10:18:22.734Z,100660.00
2023-05-05T10:20:53.081Z,100655.16
2023-05-05T10:23:22.709Z,100653.00
2023-05-05T10:26:01.691Z,100651.34
2023-05-05T10:28:42.193Z,100649.38
2023-05-05T10:31:25.633Z,100656.19
2023-05-05T10:33:58.707Z,100647.03
2023-05-05T10:36:25.920Z,100643.03
2023-05-05T10:38:57.256Z,100648.88
2023-05-05T10:41:26.110Z,100641.19
2023-05-05T10:43:57.685Z,100641.03
2023-05-05T10:46:27.118Z,100624.31
2023-05-05T10:48:56.982Z,100623.91
2023-05-05T10:51:46.950Z,100628.72
2023-05-05T10:54:38.523Z,100620.19
2023-05-05T10:57:09.753Z,100608.91
2023-05-05T10:59:39.171Z,100610.97
2023-05-05T11:02:22.151Z,100602.78
2023-05-05T11:05:17.033Z,100609.75
2023-05-05T11:07:50.052Z,100607.91
2023-05-05T11:10:23.295Z,100594.09
2023-05-05T11:13:10.199Z,100600.38
2023-05-05T11:15:38.064Z,100592.78
2023-05-05T11:18:08.294Z,100595.63
2023-05-05T11:20:35.447Z,100594.13
2023-05-05T11:23:05.448Z,100592.63
2023-05-05T11:25:35.750Z,100593.19
2023-05-05T11:28:08.653Z,100581.41
2023-05-05T11:30:36.700Z,100583.50
2023-05-05T11:33:38.374Z,100588.25
2023-05-05T11:36:06.794Z,100579.47
2023-05-05T11:38:52.490Z,100581.09
2023-05-05T11:41:33.886Z,100574.94
2023-05-05T11:44:09.895Z,100575.13
2023-05-05T11:46:36.571Z,100576.06
2023-05-05T11:49:03.611Z,100571.59
2023-05-05T11:51:31.686Z,100565.63
2023-05-05T11:53:59.213Z,100561.59
2023-05-05T11:56:29.284Z,100559.63
2023-05-05T11:59:11.413Z,100563.97
2023-05-05T12:01:41.500Z,100557.03
2023-05-05T12:04:26.646Z,100562.31
2023-05-05T12:06:55.448Z,100560.63
2023-05-05T12:09:23.272Z,100550.97
2023-05-05T12:11:54.231Z,100556.22
2023-05-05T12:14:22.847Z,100551.19
2023-05-05T12:17:04.085Z,100546.00
2023-05-05T12:19:33.408Z,100549.47
2023-05-05T12:22:00.978Z,100542.66
2023-05-05T12:24:28.090Z,100533.59
2023-05-05T12:26:54.673Z,100534.78
2023-05-05T12:29:25.611Z,100540.16
2023-05-05T12:31:52.390Z,100534.38
2023-05-05T12:34:19.564Z,100525.91
2023-05-05T12:36:46.714Z,100532.97
2023-05-05T12:39:13.467Z,100527.56
2023-05-05T12:41:40.354Z,100526.66
2023-05-05T12:44:07.181Z,100522.06
2023-05-05T12:46:47.176Z,100519.03
2023-05-05T12:49:15.277Z,100522.06
2023-05-05T12:51:56.290Z,100520.59
2023-05-05T12:54:25.149Z,100511.09
2023-05-05T12:56:51.796Z,100511.59
2023-05-05T12:59:21.201Z,100500.97
2023-05-05T13:02:00.154Z,100501.06
2023-05-05T13:04:28.120Z,100489.38
2023-05-05T13:07:15.779Z,100486.38
2023-05-05T13:09:42.706Z,100478.53
2023-05-05T13:12:12.145Z,100482.72
2023-05-05T13:14:39.574Z,100481.28
2023-05-05T13:17:06.517Z,100489.09
2023-05-05T13:19:35.555Z,100477.97
2023-05-05T13:22:02.615Z,100472.38
2023-05-05T13:24:46.379Z,100466.28
2023-05-05T13:27:13.865Z,100481.81
2023-05-05T13:29:41.743Z,100478.53
2023-05-05T13:32:08.495Z,100478.13
2023-05-05T13:34:35.096Z,100466.16
2023-05-05T13:37:01.722Z,100463.72
2023-05-05T13:39:28.391Z,100467.94
2023-05-05T13:41:55.078Z,100466.22
2023-05-05T13:44:22.105Z,100455.66
2023-05-05T13:46:48.894Z,100456.97
2023-05-05T13:49:15.635Z,100451.53
2023-05-05T13:51:42.302Z,100451.16
2023-05-05T13:54:09.739Z,100445.75
2023-05-05T13:56:36.615Z,100455.50
2023-05-05T13:59:03.520Z,100444.34
2023-05-05T14:01:30.553Z,100445.31
2023-05-05T14:03:58.003Z,100448.81
2023-05-05T14:06:25.088Z,100453.44
2023-05-05T14:08:52.154Z,100440.91
2023-05-05T14:11:20.773Z,100445.81
2023-05-05T14:13:47.570Z,100444.47
2023-05-05T14:16:14.560Z,100442.66
2023-05-05T14:18:41.315Z,100433.53
2023-05-05T14:21:08.045Z,100430.16
2023-05-05T14:23:34.709Z,100432.56
2023-05-05T14:26:01.513Z,100424.41
2023-05-05T14:28:30.882Z,100424.97
2023-05-05T14:30:57.902Z,100429.50
2023-05-05T14:33:24.599Z,100418.19
2023-05-05T14:35:51.298Z,100410.59
2023-05-05T14:38:18.117Z,100403.75
2023-05-05T14:40:44.810Z,100409.53
2023-05-05T14:43:11.413Z,100415.94
2023-05-05T14:45:38.135Z,100411.13
2023-05-05T14:48:04.954Z,100406.50
2023-05-05T14:50:31.551Z,100408.63
2023-05-05T14:52:58.308Z,100411.09
2023-05-05T14:55:25.136Z,100411.09
2023-05-05T14:57:52.105Z,100412.34
2023-05-05T15:00:19.845Z,100408.75
2023-05-05T15:02:48.212Z,100407.72
2023-05-05T15:05:15.218Z,100416.81
2023-05-05T15:07:42.942Z,100410.22
2023-05-05T15:10:11.668Z,100405.44
2023-05-05T15:12:39.085Z,100409.31
2023-05-05T15:15:11.100Z,100409.81
2023-05-05T15:17:38.936Z,100405.22
2023-05-05T15:20:06.889Z,100405.91
2023-05-05T15:22:33.965Z,100405.28
2023-05-05T15:25:01.266Z,100400.97
2023-05-05T15:27:28.137Z,100400.59
2023-05-05T15:30:41.792Z,100396.31
2023-05-05T15:33:08.468Z,100401.69
2023-05-05T15:35:36.293Z,100391.50
2023-05-05T15:38:03.368Z,100395.38
2023-05-05T15:40:30.148Z,100391.69
2023-05-05T15:42:57.383Z,100390.56
2023-05-05T15:45:24.111Z,100387.47
2023-05-05T15:47:50.943Z,100387.13
2023-05-05T15:50:17.678Z,100383.19
2023-05-05T15:52:44.445Z,100379.50
2023-05-05T15:55:11.902Z,100382.00
2023-05-05T15:57:41.427Z,100372.78
2023-05-05T16:00:08.532Z,100384.31
2023-05-05T16:02:35.461Z,100379.31
2023-05-05T16:05:02.449Z,100380.63
2023-05-05T16:07:29.281Z,100381.00
2023-05-05T16:09:56.824Z,100375.50
2023-05-05T16:12:23.399Z,100369.16
2023-05-05T16:14:50.043Z,100367.78
2023-05-05T16:17:16.628Z,100365.19
2023-05-05T16:19:43.211Z,100373.47
2023-05-05T16:22:09.951Z,100357.97
2023-05-05T16:24:36.690Z,100366.31
2023-05-05T16:27:04.292Z,100360.19
2023-05-05T16:29:30.930Z,100351.47
2023-05-05T16:31:58.936Z,100357.44
2023-05-05T16:34:25.789Z,100361.88
2023-05-05T16:36:53.453Z,100363.69
2023-05-05T16:39:20.162Z,100363.78
2023-05-05T16:41:46.758Z,100363.53
2023-05-05T16:44:14.488Z,100362.84
2023-05-05T16:46:41.181Z,100363.81
2023-05-05T16:49:07.885Z,100362.63
2023-05-05T16:51:34.559Z,100365.50
2023-05-05T16:54:01.245Z,100363.38
2023-05-05T16:56:27.931Z,100359.63
2023-05-05T16:58:54.550Z,100355.44
2023-05-05T17:01:21.182Z,100361.19
2023-05-05T17:03:47.788Z,100364.94
2023-05-05T17:06:14.489Z,100364.25
2023-05-05T17:08:41.171Z,100362.25
2023-05-05T17:11:10.878Z,100366.59
2023-05-05T17:13:38.241Z,100366.44
2023-05-05T17:16:07.798Z,100365.50
2023-05-05T17:18:34.595Z,100369.47
2023-05-05T17:21:01.278Z,100364.16
2023-05-05T17:23:28.051Z,100369.66
2023-05-05T17:25:54.784Z,100369.63
2023-05-05T17:28:21.396Z,100373.75
2023-05-05T17:30:47.992Z,100369.69
2023-05-05T17:33:16.865Z,100379.72
2023-05-05T17:35:43.591Z,100374.66
2023-05-05T17:38:10.168Z,100372.84
2023-05-05T17:40:36.750Z,100375.13
2023-05-05T17:43:03.343Z,100378.47
2023-05-05T17:45:30.752Z,100384.66
2023-05-05T17:47:57.550Z,100381.91
2023-05-05T17:50:25.300Z,100385.69
2023-05-05T17:52:52.081Z,100384.53
2023-05-05T17:55:19.438Z,100386.28
2023-05-05T17:57:47.339Z,100391.72
2023-05-05T18:00:14.286Z,100395.84
2023-05-05T18:02:41.091Z,100396.75
2023-05-05T18:05:09.126Z,100395.09
2023-05-05T18:07:35.874Z,100388.72
2023-05-05T18:10:02.517Z,100395.03
2023-05-05T18:12:29.108Z,100399.66
2023-05-05T18:14:55.692Z,100394.91
2023-05-05T18:17:22.509Z,100397.16
2023-05-05T18:19:49.649Z,100394.31
2023-05-05T18:22:16.465Z,100398.50
2023-05-05T18:24:43.394Z,100406.31
2023-05-05T18:27:09.975Z,100405.09
2023-05-05T18:29:36.670Z,100410.66
2023-05-05T18:32:05.921Z,100411.50
2023-05-05T18:34:32.948Z,100411.91
2023-05-05T18:37:00.429Z,100406.53
2023-05-05T18:39:27.198Z,100412.22
2023-05-05T18:41:53.890Z,100415.09
2023-05-05T18:44:20.488Z,100411.59
2023-05-05T18:46:47.321Z,100422.69
2023-05-05T18:49:14.120Z,100418.13
2023-05-05T18:51:41.444Z,100421.22
2023-05-05T18:54:08.098Z,100416.25
2023-05-05T18:56:34.697Z,100418.91
2023-05-05T18:59:01.345Z,100425.00
2023-05-05T19:01:28.197Z,100425.75
2023-05-05T19:03:54.902Z,100430.63
2023-05-05T19:06:21.676Z,100431.13
2023-05-05T19:08:48.355Z,100438.22
2023-05-05T19:11:15.261Z,100435.22
2023-05-05T19:13:42.495Z,100428.03
2023-05-05T19:16:11.272Z,100430.16
2023-05-05T19:18:38.512Z,100432.72
2023-05-05T19:21:05.413Z,100431.09
2023-05-05T19:23:32.268Z,100425.63
2023-05-05T19:25:59.022Z,100431.16
2023-05-05T19:28:25.674Z,100434.09
2023-05-05T19:30:52.557Z,100430.75
2023-05-05T19:33:19.253Z,100433.38
2023-05-05T19:35:45.908Z,100430.91
2023-05-05T19:38:12.726Z,100437.06
2023-05-05T19:40:39.848Z,100442.91
2023-05-05T19:43:06.885Z,100450.09
2023-05-05T19:45:33.977Z,100442.09
2023-05-05T19:48:02.411Z,100432.16
2023-05-05T19:50:30.483Z,100430.88
2023-05-05T19:52:57.840Z,100436.16
2023-05-05T19:55:24.607Z,100427.78
2023-05-05T19:57:51.465Z,100426.06
2023-05-05T20:00:19.619Z,100430.25
2023-05-05T20:02:46.489Z,100434.72
2023-05-05T20:05:14.967Z,100439.88
2023-05-05T20:07:44.413Z,100443.94
2023-05-05T20:10:13.215Z,100434.53
2023-05-05T20:12:42.503Z,100434.47
2023-05-05T20:15:10.972Z,100436.91
2023-05-05T20:17:37.752Z,100442.22
2023-05-05T20:20:04.815Z,100435.31
2023-05-05T20:22:31.536Z,100429.25
2023-05-05T20:24:58.354Z,100427.28
2023-05-05T20:27:26.644Z,100427.88
2023-05-05T20:29:54.646Z,100434.03
2023-05-05T20:32:21.398Z,100427.09
2023-05-05T20:34:50.906Z,100423.50
2023-05-05T20:37:17.541Z,100426.41
2023-05-05T20:39:44.261Z,100422.13
2023-05-05T20:42:13.036Z,100426.22
2023-05-05T20:44:40.075Z,100427.06
2023-05-05T20:47:07.438Z,100423.72
2023-05-05T20:49:34.652Z,100428.91
2023-05-05T20:52:03.247Z,100433.09
2023-05-05T20:54:36.222Z,100424.09
2023-05-05T20:57:02.856Z,100425.13
2023-05-05T20:59:29.565Z,100423.56
2023-05-05T21:01:59.342Z,100418.09
2023-05-05T21:04:26.018Z,100422.97
2023-05-05T21:06:52.652Z,100422.31
2023-05-05T21:09:21.475Z,100428.66
2023-05-05T21:11:48.834Z,100426.66
2023-05-05T21:14:16.446Z,100428.31
2023-05-05T21:16:43.173Z,100415.28
2023-05-05T21:19:09.863Z,100417.09
2023-05-05T21:21:36.624Z,100421.34
2023-05-05T21:24:05.512Z,100417.28
2023-05-05T21:26:33.785Z,100416.03
2023-05-05T21:29:00.382Z,100420.50
2023-05-05T21:31:27.058Z,100418.03
2023-05-05T21:33:54.266Z,100423.34
2023-05-05T21:36:21.330Z,100413.19
2023-05-05T21:38:47.998Z,100411.63
2023-05-05T21:41:15.759Z,100413.97
2023-05-05T21:43:42.397Z,100409.84
2023-05-05T21:46:09.056Z,100412.88
2023-05-05T21:48:38.790Z,100406.00
2023-05-05T21:51:05.656Z,100409.38
2023-05-05T21:53:32.237Z,100416.88
2023-05-05T21:55:59.095Z,100413.69
2023-05-05T21:58:28.417Z,100411.72
2023-05-05T22:00:55.049Z,100413.59
2023-05-05T22:03:21.705Z,100409.94
2023-05-05T22:05:48.346Z,100405.13
2023-05-05T22:08:14.958Z,100412.91
2023-05-05T22:10:41.758Z,100400.50
2023-05-05T22:13:10.358Z,100405.63
2023-05-05T22:15:45.989Z,100405.31
2023-05-05T22:18:13.173Z,100400.81
2023-05-05T22:20:43.049Z,100399.31
2023-05-05T22:23:09.625Z,100391.03
2023-05-05T22:25:36.273Z,100392.22
2023-05-05T22:28:02.916Z,100387.25
2023-05-05T22:30:29.736Z,100382.28
2023-05-05T22:32:56.585Z,100387.09
2023-05-05T22:35:23.302Z,100386.25
2023-05-05T22:37:49.920Z,100385.59
2023-05-05T22:40:16.593Z,100386.25
2023-05-05T22:42:43.818Z,100384.63
2023-05-05T22:45:11.018Z,100390.59
2023-05-05T22:47:40.907Z,100379.97
2023-05-05T22:50:08.414Z,100382.28
2023-05-05T22:52:35.149Z,100387.78
2023-05-05T22:55:01.845Z,100385.28
2023-05-05T22:57:28.555Z,100394.06
2023-05-05T22:59:55.209Z,100400.84
2023-05-05T23:02:22.032Z,100397.88
2023-05-05T23:04:48.726Z,100394.56
2023-05-05T23:07:15.497Z,100390.75
2023-05-05T23:09:42.159Z,100396.88
2023-05-05T23:12:08.833Z,100400.50
2023-05-05T23:14:36.083Z,100396.88
2023-05-05T23:17:03.964Z,100391.19
2023-05-05T23:19:32.684Z,100398.41
2023-05-05T23:22:01.748Z,100405.34
2023-05-05T23:24:28.670Z,100398.75
2023-05-05T23:26:58.346Z,100392.13
2023-05-05T23:29:24.982Z,100397.75
2023-05-05T23:31:51.608Z,100401.38
2023-05-05T23:34:20.255Z,100387.50
2023-05-05T23:36:46.833Z,100390.78
2023-05-05T23:39:13.442Z,100390.78
2023-05-05T23:41:40.044Z,100391.03
2023-05-05T23:44:06.816Z,100391.41
2023-05-05T23:46:33.439Z,100397.16
2023-05-05T23:49:00.065Z,100395.97
2023-05-05T23:51:27.413Z,100393.44
2023-05-05T23:53:55.865Z,100397.28
2023-05-05T23:56:23.540Z,100400.25
2023-05-05T23:58:50.189Z,100398.72
